sensor_id;sensor_type;location;lat;lon;timestamp;temperature;humidity
38684;DHT22;24910;53.248;-6.134;2022-08-14T00:00:43;20.40;70.80
38684;DHT22;24910;53.248;-6.134;2022-08-14T00:03:20;20.30;70.70
38684;DHT22;24910;53.248;-6.134;2022-08-14T00:05:57;20.30;70.50
38684;DHT22;24910;53.248;-6.134;2022-08-14T00:08:29;20.30;70.40
38684;DHT22;24910;53.248;-6.134;2022-08-14T00:11:11;20.30;70.30
38684;DHT22;24910;53.248;-6.134;2022-08-14T00:13:43;20.30;70.30
38684;DHT22;24910;53.248;-6.134;2022-08-14T00:16:19;20.30;70.30
38684;DHT22;24910;53.248;-6.134;2022-08-14T00:19:09;20.20;70.30
38684;DHT22;24910;53.248;-6.134;2022-08-14T00:21:46;20.20;70.30
38684;DHT22;24910;53.248;-6.134;2022-08-14T00:24:19;20.20;70.30
38684;DHT22;24910;53.248;-6.134;2022-08-14T00:26:57;20.20;70.30
38684;DHT22;24910;53.248;-6.134;2022-08-14T00:29:30;20.20;71.30
38684;DHT22;24910;53.248;-6.134;2022-08-14T00:32:07;20.20;70.40
38684;DHT22;24910;53.248;-6.134;2022-08-14T00:34:56;20.10;70.40
38684;DHT22;24910;53.248;-6.134;2022-08-14T00:37:28;20.20;70.40
38684;DHT22;24910;53.248;-6.134;2022-08-14T00:40:00;20.20;70.40
38684;DHT22;24910;53.248;-6.134;2022-08-14T00:42:50;20.20;70.30
38684;DHT22;24910;53.248;-6.134;2022-08-14T00:45:23;20.20;70.00
38684;DHT22;24910;53.248;-6.134;2022-08-14T00:47:57;20.20;70.00
38684;DHT22;24910;53.248;-6.134;2022-08-14T00:50:27;20.10;70.00
38684;DHT22;24910;53.248;-6.134;2022-08-14T00:52:59;20.10;70.20
38684;DHT22;24910;53.248;-6.134;2022-08-14T00:55:30;20.10;70.40
38684;DHT22;24910;53.248;-6.134;2022-08-14T00:58:03;20.10;70.60
38684;DHT22;24910;53.248;-6.134;2022-08-14T01:01:02;20.00;70.50
38684;DHT22;24910;53.248;-6.134;2022-08-14T01:03:33;20.00;70.70
38684;DHT22;24910;53.248;-6.134;2022-08-14T01:06:03;20.00;70.80
38684;DHT22;24910;53.248;-6.134;2022-08-14T01:08:35;20.00;70.90
38684;DHT22;24910;53.248;-6.134;2022-08-14T01:11:26;20.00;70.80
38684;DHT22;24910;53.248;-6.134;2022-08-14T01:14:03;20.00;70.80
38684;DHT22;24910;53.248;-6.134;2022-08-14T01:16:52;20.00;70.80
38684;DHT22;24910;53.248;-6.134;2022-08-14T01:19:23;20.00;70.70
38684;DHT22;24910;53.248;-6.134;2022-08-14T01:22:11;20.00;70.80
38684;DHT22;24910;53.248;-6.134;2022-08-14T01:24:46;20.00;71.00
38684;DHT22;24910;53.248;-6.134;2022-08-14T01:27:19;19.90;71.20
38684;DHT22;24910;53.248;-6.134;2022-08-14T01:29:52;19.90;71.40
38684;DHT22;24910;53.248;-6.134;2022-08-14T01:32:31;19.90;71.60
38684;DHT22;24910;53.248;-6.134;2022-08-14T01:35:05;19.80;71.70
38684;DHT22;24910;53.248;-6.134;2022-08-14T01:37:49;19.90;71.80
38684;DHT22;24910;53.248;-6.134;2022-08-14T01:40:23;19.90;71.80
38684;DHT22;24910;53.248;-6.134;2022-08-14T01:43:09;19.90;71.80
38684;DHT22;24910;53.248;-6.134;2022-08-14T01:45:48;19.80;71.70
38684;DHT22;24910;53.248;-6.134;2022-08-14T01:48:33;19.80;71.80
38684;DHT22;24910;53.248;-6.134;2022-08-14T01:51:05;19.80;71.80
38684;DHT22;24910;53.248;-6.134;2022-08-14T01:53:50;19.80;71.80
38684;DHT22;24910;53.248;-6.134;2022-08-14T01:56:24;19.80;71.90
38684;DHT22;24910;53.248;-6.134;2022-08-14T01:59:07;19.80;71.90
38684;DHT22;24910;53.248;-6.134;2022-08-14T02:01:45;19.80;71.90
38684;DHT22;24910;53.248;-6.134;2022-08-14T02:04:31;19.80;72.00
38684;DHT22;24910;53.248;-6.134;2022-08-14T02:07:20;19.80;72.00
38684;DHT22;24910;53.248;-6.134;2022-08-14T02:10:11;19.70;72.00
38684;DHT22;24910;53.248;-6.134;2022-08-14T02:12:44;19.70;72.00
38684;DHT22;24910;53.248;-6.134;2022-08-14T02:15:24;19.80;72.00
38684;DHT22;24910;53.248;-6.134;2022-08-14T02:17:53;19.80;72.00
38684;DHT22;24910;53.248;-6.134;2022-08-14T02:20:22;19.80;72.10
38684;DHT22;24910;53.248;-6.134;2022-08-14T02:22:52;19.80;72.10
38684;DHT22;24910;53.248;-6.134;2022-08-14T02:25:23;19.80;72.20
38684;DHT22;24910;53.248;-6.134;2022-08-14T02:27:57;19.80;72.40
38684;DHT22;24910;53.248;-6.134;2022-08-14T02:30:46;19.80;72.50
38684;DHT22;24910;53.248;-6.134;2022-08-14T02:33:19;19.70;72.50
38684;DHT22;24910;53.248;-6.134;2022-08-14T02:35:49;19.70;72.50
38684;DHT22;24910;53.248;-6.134;2022-08-14T02:38:27;19.70;72.60
38684;DHT22;24910;53.248;-6.134;2022-08-14T02:41:04;19.70;72.60
38684;DHT22;24910;53.248;-6.134;2022-08-14T02:43:39;19.70;72.70
38684;DHT22;24910;53.248;-6.134;2022-08-14T02:46:15;19.70;72.70
38684;DHT22;24910;53.248;-6.134;2022-08-14T02:48:53;19.70;72.90
38684;DHT22;24910;53.248;-6.134;2022-08-14T02:51:32;19.70;72.90
38684;DHT22;24910;53.248;-6.134;2022-08-14T02:54:04;19.70;73.10
38684;DHT22;24910;53.248;-6.134;2022-08-14T02:56:36;19.70;73.20
38684;DHT22;24910;53.248;-6.134;2022-08-14T02:59:27;19.60;73.20
38684;DHT22;24910;53.248;-6.134;2022-08-14T03:02:01;19.70;73.20
38684;DHT22;24910;53.248;-6.134;2022-08-14T03:04:31;19.70;73.30
38684;DHT22;24910;53.248;-6.134;2022-08-14T03:07:01;19.70;73.40
38684;DHT22;24910;53.248;-6.134;2022-08-14T03:09:35;19.70;73.50
38684;DHT22;24910;53.248;-6.134;2022-08-14T03:12:27;19.70;73.60
38684;DHT22;24910;53.248;-6.134;2022-08-14T03:15:00;19.60;73.70
38684;DHT22;24910;53.248;-6.134;2022-08-14T03:17:43;19.70;73.90
38684;DHT22;24910;53.248;-6.134;2022-08-14T03:20:25;19.70;73.90
38684;DHT22;24910;53.248;-6.134;2022-08-14T03:22:56;19.60;73.90
38684;DHT22;24910;53.248;-6.134;2022-08-14T03:25:31;19.60;73.90
38684;DHT22;24910;53.248;-6.134;2022-08-14T03:28:07;19.60;73.90
38684;DHT22;24910;53.248;-6.134;2022-08-14T03:30:57;19.60;74.10
38684;DHT22;24910;53.248;-6.134;2022-08-14T03:33:27;19.60;74.30
38684;DHT22;24910;53.248;-6.134;2022-08-14T03:36:06;19.50;74.40
38684;DHT22;24910;53.248;-6.134;2022-08-14T03:38:59;19.50;74.40
38684;DHT22;24910;53.248;-6.134;2022-08-14T03:41:49;19.50;74.40
38684;DHT22;24910;53.248;-6.134;2022-08-14T03:44:20;19.50;74.40
38684;DHT22;24910;53.248;-6.134;2022-08-14T03:47:10;19.50;74.60
38684;DHT22;24910;53.248;-6.134;2022-08-14T03:49:42;19.40;74.60
38684;DHT22;24910;53.248;-6.134;2022-08-14T03:52:17;19.40;74.70
38684;DHT22;24910;53.248;-6.134;2022-08-14T03:55:08;19.40;74.80
38684;DHT22;24910;53.248;-6.134;2022-08-14T03:57:39;19.40;74.80
38684;DHT22;24910;53.248;-6.134;2022-08-14T04:00:12;19.40;74.70
38684;DHT22;24910;53.248;-6.134;2022-08-14T04:03:02;19.40;74.80
38684;DHT22;24910;53.248;-6.134;2022-08-14T04:05:33;19.40;74.70
38684;DHT22;24910;53.248;-6.134;2022-08-14T04:08:15;19.40;74.70
38684;DHT22;24910;53.248;-6.134;2022-08-14T04:10:58;19.40;74.70
38684;DHT22;24910;53.248;-6.134;2022-08-14T04:13:28;19.40;74.90
38684;DHT22;24910;53.248;-6.134;2022-08-14T04:16:02;19.40;75.00
38684;DHT22;24910;53.248;-6.134;2022-08-14T04:18:36;19.40;75.00
38684;DHT22;24910;53.248;-6.134;2022-08-14T04:21:09;19.40;75.20
38684;DHT22;24910;53.248;-6.134;2022-08-14T04:23:39;19.40;75.20
38684;DHT22;24910;53.248;-6.134;2022-08-14T04:26:12;19.40;75.30
38684;DHT22;24910;53.248;-6.134;2022-08-14T04:29:01;19.40;75.40
38684;DHT22;24910;53.248;-6.134;2022-08-14T04:31:43;19.40;75.50
38684;DHT22;24910;53.248;-6.134;2022-08-14T04:34:33;19.40;75.60
38684;DHT22;24910;53.248;-6.134;2022-08-14T04:37:03;19.40;75.70
38684;DHT22;24910;53.248;-6.134;2022-08-14T04:39:53;19.40;75.80
38684;DHT22;24910;53.248;-6.134;2022-08-14T04:42:41;19.40;75.90
38684;DHT22;24910;53.248;-6.134;2022-08-14T04:45:28;19.40;76.00
38684;DHT22;24910;53.248;-6.134;2022-08-14T04:48:11;19.40;76.10
38684;DHT22;24910;53.248;-6.134;2022-08-14T04:51:01;19.40;76.20
38684;DHT22;24910;53.248;-6.134;2022-08-14T04:53:31;19.40;76.20
38684;DHT22;24910;53.248;-6.134;2022-08-14T04:56:04;19.40;76.30
38684;DHT22;24910;53.248;-6.134;2022-08-14T04:58:54;19.40;76.50
38684;DHT22;24910;53.248;-6.134;2022-08-14T05:01:28;19.40;76.60
38684;DHT22;24910;53.248;-6.134;2022-08-14T05:04:08;19.40;76.70
38684;DHT22;24910;53.248;-6.134;2022-08-14T05:06:48;19.40;76.80
38684;DHT22;24910;53.248;-6.134;2022-08-14T05:09:23;19.40;76.80
38684;DHT22;24910;53.248;-6.134;2022-08-14T05:11:57;19.40;76.90
38684;DHT22;24910;53.248;-6.134;2022-08-14T05:14:46;19.40;77.00
38684;DHT22;24910;53.248;-6.134;2022-08-14T05:17:22;19.30;77.00
38684;DHT22;24910;53.248;-6.134;2022-08-14T05:20:12;19.30;77.20
38684;DHT22;24910;53.248;-6.134;2022-08-14T05:23:01;19.30;77.30
38684;DHT22;24910;53.248;-6.134;2022-08-14T05:25:30;19.30;77.20
38684;DHT22;24910;53.248;-6.134;2022-08-14T05:28:08;19.30;77.20
38684;DHT22;24910;53.248;-6.134;2022-08-14T05:30:43;19.30;77.20
38684;DHT22;24910;53.248;-6.134;2022-08-14T05:33:15;19.40;77.10
38684;DHT22;24910;53.248;-6.134;2022-08-14T05:35:47;19.40;77.10
38684;DHT22;24910;53.248;-6.134;2022-08-14T05:38:19;19.40;77.30
38684;DHT22;24910;53.248;-6.134;2022-08-14T05:41:03;19.40;77.30
38684;DHT22;24910;53.248;-6.134;2022-08-14T05:43:35;19.40;77.30
38684;DHT22;24910;53.248;-6.134;2022-08-14T05:46:10;19.40;77.40
38684;DHT22;24910;53.248;-6.134;2022-08-14T05:48:42;19.40;77.50
38684;DHT22;24910;53.248;-6.134;2022-08-14T05:51:13;19.40;77.50
38684;DHT22;24910;53.248;-6.134;2022-08-14T05:53:43;19.40;77.50
38684;DHT22;24910;53.248;-6.134;2022-08-14T05:56:32;19.40;77.50
38684;DHT22;24910;53.248;-6.134;2022-08-14T05:59:03;19.50;77.50
38684;DHT22;24910;53.248;-6.134;2022-08-14T06:01:34;19.50;77.50
38684;DHT22;24910;53.248;-6.134;2022-08-14T06:04:03;19.60;77.60
38684;DHT22;24910;53.248;-6.134;2022-08-14T06:06:34;19.60;77.70
38684;DHT22;24910;53.248;-6.134;2022-08-14T06:09:05;19.60;77.70
38684;DHT22;24910;53.248;-6.134;2022-08-14T06:11:37;19.60;77.70
38684;DHT22;24910;53.248;-6.134;2022-08-14T06:14:06;19.70;77.70
38684;DHT22;24910;53.248;-6.134;2022-08-14T06:16:47;19.80;77.70
38684;DHT22;24910;53.248;-6.134;2022-08-14T06:19:20;19.90;77.70
38684;DHT22;24910;53.248;-6.134;2022-08-14T06:21:51;20.00;77.70
38684;DHT22;24910;53.248;-6.134;2022-08-14T06:24:26;20.10;77.70
38684;DHT22;24910;53.248;-6.134;2022-08-14T06:27:01;20.20;77.50
38684;DHT22;24910;53.248;-6.134;2022-08-14T06:29:37;20.40;77.40
38684;DHT22;24910;53.248;-6.134;2022-08-14T06:32:07;20.50;77.20
38684;DHT22;24910;53.248;-6.134;2022-08-14T06:34:56;20.60;77.10
38684;DHT22;24910;53.248;-6.134;2022-08-14T06:37:41;20.70;76.90
38684;DHT22;24910;53.248;-6.134;2022-08-14T06:40:12;20.90;76.60
38684;DHT22;24910;53.248;-6.134;2022-08-14T06:42:57;21.00;76.40
38684;DHT22;24910;53.248;-6.134;2022-08-14T06:45:30;21.20;76.30
38684;DHT22;24910;53.248;-6.134;2022-08-14T06:48:00;21.30;76.20
38684;DHT22;24910;53.248;-6.134;2022-08-14T06:50:32;21.40;76.10
38684;DHT22;24910;53.248;-6.134;2022-08-14T06:53:03;21.50;76.00
38684;DHT22;24910;53.248;-6.134;2022-08-14T06:55:32;21.60;75.70
38684;DHT22;24910;53.248;-6.134;2022-08-14T06:58:10;21.70;75.80
38684;DHT22;24910;53.248;-6.134;2022-08-14T07:00:56;21.80;75.90
38684;DHT22;24910;53.248;-6.134;2022-08-14T07:03:42;21.80;75.70
38684;DHT22;24910;53.248;-6.134;2022-08-14T07:06:29;21.90;75.60
38684;DHT22;24910;53.248;-6.134;2022-08-14T07:09:15;22.00;75.50
38684;DHT22;24910;53.248;-6.134;2022-08-14T07:11:50;22.20;75.40
38684;DHT22;24910;53.248;-6.134;2022-08-14T07:14:19;22.20;74.90
38684;DHT22;24910;53.248;-6.134;2022-08-14T07:16:49;22.30;74.80
38684;DHT22;24910;53.248;-6.134;2022-08-14T07:19:19;22.30;74.70
38684;DHT22;24910;53.248;-6.134;2022-08-14T07:21:50;22.40;74.70
38684;DHT22;24910;53.248;-6.134;2022-08-14T07:24:20;22.40;74.30
38684;DHT22;24910;53.248;-6.134;2022-08-14T07:26:58;22.30;74.10
38684;DHT22;24910;53.248;-6.134;2022-08-14T07:29:27;22.20;74.10
38684;DHT22;24910;53.248;-6.134;2022-08-14T07:31:56;22.10;74.20
38684;DHT22;24910;53.248;-6.134;2022-08-14T07:34:26;22.10;74.40
38684;DHT22;24910;53.248;-6.134;2022-08-14T07:37:08;22.00;74.40
38684;DHT22;24910;53.248;-6.134;2022-08-14T07:39:39;22.10;74.60
38684;DHT22;24910;53.248;-6.134;2022-08-14T07:42:10;22.20;74.50
38684;DHT22;24910;53.248;-6.134;2022-08-14T07:44:39;22.20;74.30
38684;DHT22;24910;53.248;-6.134;2022-08-14T07:47:17;22.30;74.20
38684;DHT22;24910;53.248;-6.134;2022-08-14T07:49:58;22.40;74.00
38684;DHT22;24910;53.248;-6.134;2022-08-14T07:52:28;22.50;73.90
38684;DHT22;24910;53.248;-6.134;2022-08-14T07:55:00;22.40;73.70
38684;DHT22;24910;53.248;-6.134;2022-08-14T07:57:29;22.30;73.90
38684;DHT22;24910;53.248;-6.134;2022-08-14T07:59:58;22.30;74.10
38684;DHT22;24910;53.248;-6.134;2022-08-14T08:02:40;22.30;74.10
38684;DHT22;24910;53.248;-6.134;2022-08-14T08:05:13;22.40;74.20
38684;DHT22;24910;53.248;-6.134;2022-08-14T08:07:45;22.50;74.30
38684;DHT22;24910;53.248;-6.134;2022-08-14T08:10:19;22.70;73.80
38684;DHT22;24910;53.248;-6.134;2022-08-14T08:13:21;22.70;73.30
38684;DHT22;24910;53.248;-6.134;2022-08-14T08:15:56;22.80;73.10
38684;DHT22;24910;53.248;-6.134;2022-08-14T08:18:25;22.90;72.90
38684;DHT22;24910;53.248;-6.134;2022-08-14T08:20:57;22.90;72.70
38684;DHT22;24910;53.248;-6.134;2022-08-14T08:23:28;23.00;72.60
38684;DHT22;24910;53.248;-6.134;2022-08-14T08:26:18;23.10;72.40
38684;DHT22;24910;53.248;-6.134;2022-08-14T08:28:54;23.10;72.90
38684;DHT22;24910;53.248;-6.134;2022-08-14T08:31:24;23.20;71.80
38684;DHT22;24910;53.248;-6.134;2022-08-14T08:34:03;23.20;71.90
38684;DHT22;24910;53.248;-6.134;2022-08-14T08:36:39;23.20;71.40
38684;DHT22;24910;53.248;-6.134;2022-08-14T08:39:13;23.30;71.50
38684;DHT22;24910;53.248;-6.134;2022-08-14T08:41:50;23.30;71.30
38684;DHT22;24910;53.248;-6.134;2022-08-14T08:44:27;23.20;71.10
38684;DHT22;24910;53.248;-6.134;2022-08-14T08:47:00;23.30;71.20
38684;DHT22;24910;53.248;-6.134;2022-08-14T08:49:38;23.30;70.90
38684;DHT22;24910;53.248;-6.134;2022-08-14T08:52:26;23.40;70.70
38684;DHT22;24910;53.248;-6.134;2022-08-14T08:54:59;23.40;70.50
38684;DHT22;24910;53.248;-6.134;2022-08-14T08:57:34;23.50;70.20
38684;DHT22;24910;53.248;-6.134;2022-08-14T09:00:13;23.50;69.90
38684;DHT22;24910;53.248;-6.134;2022-08-14T09:02:54;23.50;69.70
38684;DHT22;24910;53.248;-6.134;2022-08-14T09:05:25;23.50;69.70
38684;DHT22;24910;53.248;-6.134;2022-08-14T09:07:54;23.60;69.80
38684;DHT22;24910;53.248;-6.134;2022-08-14T09:10:56;23.60;69.80
38684;DHT22;24910;53.248;-6.134;2022-08-14T09:13:28;23.60;69.80
38684;DHT22;24910;53.248;-6.134;2022-08-14T09:15:59;23.60;69.60
38684;DHT22;24910;53.248;-6.134;2022-08-14T09:18:46;23.60;69.50
38684;DHT22;24910;53.248;-6.134;2022-08-14T09:21:15;23.70;69.40
38684;DHT22;24910;53.248;-6.134;2022-08-14T09:23:45;23.60;69.20
38684;DHT22;24910;53.248;-6.134;2022-08-14T09:26:35;23.60;69.20
38684;DHT22;24910;53.248;-6.134;2022-08-14T09:29:08;23.70;69.10
38684;DHT22;24910;53.248;-6.134;2022-08-14T09:31:43;23.70;68.90
38684;DHT22;24910;53.248;-6.134;2022-08-14T09:34:21;23.80;68.70
38684;DHT22;24910;53.248;-6.134;2022-08-14T09:37:12;24.00;68.40
38684;DHT22;24910;53.248;-6.134;2022-08-14T09:39:53;24.10;68.00
38684;DHT22;24910;53.248;-6.134;2022-08-14T09:42:36;24.20;68.10
38684;DHT22;24910;53.248;-6.134;2022-08-14T09:45:18;24.30;67.60
38684;DHT22;24910;53.248;-6.134;2022-08-14T09:47:51;24.30;67.50
38684;DHT22;24910;53.248;-6.134;2022-08-14T09:50:23;24.50;67.20
38684;DHT22;24910;53.248;-6.134;2022-08-14T09:52:56;24.50;66.60
38684;DHT22;24910;53.248;-6.134;2022-08-14T09:55:29;24.40;66.60
38684;DHT22;24910;53.248;-6.134;2022-08-14T09:58:10;24.40;66.40
38684;DHT22;24910;53.248;-6.134;2022-08-14T10:00:50;24.40;66.30
38684;DHT22;24910;53.248;-6.134;2022-08-14T10:03:25;24.40;66.60
38684;DHT22;24910;53.248;-6.134;2022-08-14T10:06:05;24.40;66.40
38684;DHT22;24910;53.248;-6.134;2022-08-14T10:08:44;24.40;66.20
38684;DHT22;24910;53.248;-6.134;2022-08-14T10:11:20;24.30;66.00
38684;DHT22;24910;53.248;-6.134;2022-08-14T10:13:51;24.20;66.10
38684;DHT22;24910;53.248;-6.134;2022-08-14T10:16:25;24.20;66.30
38684;DHT22;24910;53.248;-6.134;2022-08-14T10:19:04;24.20;66.30
38684;DHT22;24910;53.248;-6.134;2022-08-14T10:21:37;24.20;66.30
38684;DHT22;24910;53.248;-6.134;2022-08-14T10:24:28;24.20;66.40
38684;DHT22;24910;53.248;-6.134;2022-08-14T10:27:12;24.20;66.10
38684;DHT22;24910;53.248;-6.134;2022-08-14T10:29:47;24.00;65.90
38684;DHT22;24910;53.248;-6.134;2022-08-14T10:32:25;23.90;66.10
38684;DHT22;24910;53.248;-6.134;2022-08-14T10:35:15;23.90;66.40
38684;DHT22;24910;53.248;-6.134;2022-08-14T10:37:50;23.90;66.50
38684;DHT22;24910;53.248;-6.134;2022-08-14T10:40:24;23.90;66.20
38684;DHT22;24910;53.248;-6.134;2022-08-14T10:43:18;23.90;66.20
38684;DHT22;24910;53.248;-6.134;2022-08-14T10:45:55;23.90;66.20
38684;DHT22;24910;53.248;-6.134;2022-08-14T10:48:32;24.00;66.30
38684;DHT22;24910;53.248;-6.134;2022-08-14T10:51:06;24.20;66.00
38684;DHT22;24910;53.248;-6.134;2022-08-14T10:53:36;24.40;65.60
38684;DHT22;24910;53.248;-6.134;2022-08-14T10:56:10;24.50;65.00
38684;DHT22;24910;53.248;-6.134;2022-08-14T10:59:00;24.60;64.40
38684;DHT22;24910;53.248;-6.134;2022-08-14T11:01:31;24.60;64.20
38684;DHT22;24910;53.248;-6.134;2022-08-14T11:04:20;24.70;64.10
38684;DHT22;24910;53.248;-6.134;2022-08-14T11:06:54;24.80;64.20
38684;DHT22;24910;53.248;-6.134;2022-08-14T11:09:24;25.00;64.10
38684;DHT22;24910;53.248;-6.134;2022-08-14T11:11:59;25.20;63.70
38684;DHT22;24910;53.248;-6.134;2022-08-14T11:14:52;25.30;63.00
38684;DHT22;24910;53.248;-6.134;2022-08-14T11:17:26;25.30;62.80
38684;DHT22;24910;53.248;-6.134;2022-08-14T11:20:01;25.40;62.70
38684;DHT22;24910;53.248;-6.134;2022-08-14T11:22:31;25.40;62.00
38684;DHT22;24910;53.248;-6.134;2022-08-14T11:25:22;25.40;61.90
38684;DHT22;24910;53.248;-6.134;2022-08-14T11:28:08;25.50;61.90
38684;DHT22;24910;53.248;-6.134;2022-08-14T11:30:42;25.70;61.80
38684;DHT22;24910;53.248;-6.134;2022-08-14T11:33:24;25.80;61.50
38684;DHT22;24910;53.248;-6.134;2022-08-14T11:36:00;25.80;61.10
38684;DHT22;24910;53.248;-6.134;2022-08-14T11:38:45;25.80;60.80
38684;DHT22;24910;53.248;-6.134;2022-08-14T11:41:15;25.80;60.60
38684;DHT22;24910;53.248;-6.134;2022-08-14T11:43:47;25.80;60.70
38684;DHT22;24910;53.248;-6.134;2022-08-14T11:46:25;25.90;60.90
38684;DHT22;24910;53.248;-6.134;2022-08-14T11:49:04;25.90;60.60
38684;DHT22;24910;53.248;-6.134;2022-08-14T11:51:36;26.00;60.30
38684;DHT22;24910;53.248;-6.134;2022-08-14T11:54:21;26.10;60.00
38684;DHT22;24910;53.248;-6.134;2022-08-14T11:57:00;26.20;59.70
38684;DHT22;24910;53.248;-6.134;2022-08-14T11:59:31;26.20;59.50
38684;DHT22;24910;53.248;-6.134;2022-08-14T12:02:10;26.10;59.70
38684;DHT22;24910;53.248;-6.134;2022-08-14T12:05:00;26.00;59.70
38684;DHT22;24910;53.248;-6.134;2022-08-14T12:07:32;26.00;59.80
38684;DHT22;24910;53.248;-6.134;2022-08-14T12:10:03;25.90;59.70
38684;DHT22;24910;53.248;-6.134;2022-08-14T12:12:52;25.80;59.80
38684;DHT22;24910;53.248;-6.134;2022-08-14T12:15:30;25.80;59.80
38684;DHT22;24910;53.248;-6.134;2022-08-14T12:18:00;25.80;59.70
38684;DHT22;24910;53.248;-6.134;2022-08-14T12:20:32;25.80;59.60
38684;DHT22;24910;53.248;-6.134;2022-08-14T12:23:06;25.80;59.60
38684;DHT22;24910;53.248;-6.134;2022-08-14T12:25:35;25.60;59.70
38684;DHT22;24910;53.248;-6.134;2022-08-14T12:28:11;25.60;60.00
38684;DHT22;24910;53.248;-6.134;2022-08-14T12:31:11;25.50;60.30
38684;DHT22;24910;53.248;-6.134;2022-08-14T12:33:40;25.50;60.40
38684;DHT22;24910;53.248;-6.134;2022-08-14T12:36:22;25.50;60.60
38684;DHT22;24910;53.248;-6.134;2022-08-14T12:38:59;25.50;60.70
38684;DHT22;24910;53.248;-6.134;2022-08-14T12:41:31;25.50;60.70
38684;DHT22;24910;53.248;-6.134;2022-08-14T12:44:05;25.50;60.50
38684;DHT22;24910;53.248;-6.134;2022-08-14T12:46:39;25.50;60.50
38684;DHT22;24910;53.248;-6.134;2022-08-14T12:49:15;25.40;60.60
38684;DHT22;24910;53.248;-6.134;2022-08-14T12:51:55;25.20;60.70
38684;DHT22;24910;53.248;-6.134;2022-08-14T12:54:27;25.20;60.90
38684;DHT22;24910;53.248;-6.134;2022-08-14T12:57:04;25.10;61.20
38684;DHT22;24910;53.248;-6.134;2022-08-14T12:59:35;24.90;61.30
38684;DHT22;24910;53.248;-6.134;2022-08-14T13:02:20;24.90;61.40
38684;DHT22;24910;53.248;-6.134;2022-08-14T13:04:53;24.90;61.60
38684;DHT22;24910;53.248;-6.134;2022-08-14T13:07:25;24.80;61.80
38684;DHT22;24910;53.248;-6.134;2022-08-14T13:10:01;24.90;61.80
38684;DHT22;24910;53.248;-6.134;2022-08-14T13:12:56;25.00;61.40
38684;DHT22;24910;53.248;-6.134;2022-08-14T13:15:43;25.10;61.10
38684;DHT22;24910;53.248;-6.134;2022-08-14T13:18:14;25.10;60.90
38684;DHT22;24910;53.248;-6.134;2022-08-14T13:20:43;25.10;60.70
38684;DHT22;24910;53.248;-6.134;2022-08-14T13:23:25;25.10;61.00
38684;DHT22;24910;53.248;-6.134;2022-08-14T13:26:00;25.00;61.60
38684;DHT22;24910;53.248;-6.134;2022-08-14T13:28:31;24.80;61.90
38684;DHT22;24910;53.248;-6.134;2022-08-14T13:31:22;24.90;62.40
38684;DHT22;24910;53.248;-6.134;2022-08-14T13:33:57;24.80;62.50
38684;DHT22;24910;53.248;-6.134;2022-08-14T13:36:28;24.80;62.70
38684;DHT22;24910;53.248;-6.134;2022-08-14T13:39:18;24.70;62.80
38684;DHT22;24910;53.248;-6.134;2022-08-14T13:41:49;24.70;62.70
38684;DHT22;24910;53.248;-6.134;2022-08-14T13:44:25;24.70;62.80
38684;DHT22;24910;53.248;-6.134;2022-08-14T13:46:56;24.70;63.10
38684;DHT22;24910;53.248;-6.134;2022-08-14T13:49:25;24.70;63.30
38684;DHT22;24910;53.248;-6.134;2022-08-14T13:51:57;24.60;63.30
38684;DHT22;24910;53.248;-6.134;2022-08-14T13:54:28;24.50;63.50
38684;DHT22;24910;53.248;-6.134;2022-08-14T13:57:01;24.50;63.80
38684;DHT22;24910;53.248;-6.134;2022-08-14T13:59:33;24.50;64.00
38684;DHT22;24910;53.248;-6.134;2022-08-14T14:02:07;24.60;63.70
38684;DHT22;24910;53.248;-6.134;2022-08-14T14:04:39;24.60;63.50
38684;DHT22;24910;53.248;-6.134;2022-08-14T14:07:10;24.60;63.30
38684;DHT22;24910;53.248;-6.134;2022-08-14T14:09:44;24.60;63.20
38684;DHT22;24910;53.248;-6.134;2022-08-14T14:12:22;24.60;62.80
38684;DHT22;24910;53.248;-6.134;2022-08-14T14:15:10;24.70;62.80
38684;DHT22;24910;53.248;-6.134;2022-08-14T14:17:42;24.80;62.70
38684;DHT22;24910;53.248;-6.134;2022-08-14T14:20:16;24.80;62.20
38684;DHT22;24910;53.248;-6.134;2022-08-14T14:23:03;24.80;62.00
38684;DHT22;24910;53.248;-6.134;2022-08-14T14:25:43;24.70;61.90
38684;DHT22;24910;53.248;-6.134;2022-08-14T14:28:29;24.60;62.00
38684;DHT22;24910;53.248;-6.134;2022-08-14T14:31:01;24.50;62.30
38684;DHT22;24910;53.248;-6.134;2022-08-14T14:33:34;24.30;62.50
38684;DHT22;24910;53.248;-6.134;2022-08-14T14:36:17;24.30;62.80
38684;DHT22;24910;53.248;-6.134;2022-08-14T14:38:52;24.40;62.80
38684;DHT22;24910;53.248;-6.134;2022-08-14T14:41:24;24.40;62.80
38684;DHT22;24910;53.248;-6.134;2022-08-14T14:44:07;24.40;62.60
38684;DHT22;24910;53.248;-6.134;2022-08-14T14:46:43;24.40;62.70
38684;DHT22;24910;53.248;-6.134;2022-08-14T14:49:21;24.40;62.80
38684;DHT22;24910;53.248;-6.134;2022-08-14T14:52:10;24.40;63.10
38684;DHT22;24910;53.248;-6.134;2022-08-14T14:54:55;24.30;63.30
38684;DHT22;24910;53.248;-6.134;2022-08-14T14:57:26;24.20;63.60
38684;DHT22;24910;53.248;-6.134;2022-08-14T15:00:10;24.00;64.00
38684;DHT22;24910;53.248;-6.134;2022-08-14T15:02:47;23.80;64.40
38684;DHT22;24910;53.248;-6.134;2022-08-14T15:05:19;23.80;64.90
38684;DHT22;24910;53.248;-6.134;2022-08-14T15:07:54;23.60;65.30
38684;DHT22;24910;53.248;-6.134;2022-08-14T15:10:24;23.50;65.70
38684;DHT22;24910;53.248;-6.134;2022-08-14T15:13:02;23.40;66.10
38684;DHT22;24910;53.248;-6.134;2022-08-14T15:15:35;23.30;66.30
38684;DHT22;24910;53.248;-6.134;2022-08-14T15:18:07;23.20;66.40
38684;DHT22;24910;53.248;-6.134;2022-08-14T15:20:56;23.20;66.60
38684;DHT22;24910;53.248;-6.134;2022-08-14T15:23:29;23.00;66.80
38684;DHT22;24910;53.248;-6.134;2022-08-14T15:26:11;23.00;67.00
38684;DHT22;24910;53.248;-6.134;2022-08-14T15:29:00;23.00;67.00
38684;DHT22;24910;53.248;-6.134;2022-08-14T15:31:34;23.00;67.00
38684;DHT22;24910;53.248;-6.134;2022-08-14T15:34:06;23.00;67.00
38684;DHT22;24910;53.248;-6.134;2022-08-14T15:37:03;23.10;67.00
38684;DHT22;24910;53.248;-6.134;2022-08-14T15:39:33;23.10;66.80
38684;DHT22;24910;53.248;-6.134;2022-08-14T15:42:06;23.20;66.90
38684;DHT22;24910;53.248;-6.134;2022-08-14T15:44:44;23.20;66.60
38684;DHT22;24910;53.248;-6.134;2022-08-14T15:47:31;23.30;66.50
38684;DHT22;24910;53.248;-6.134;2022-08-14T15:50:05;23.20;66.30
38684;DHT22;24910;53.248;-6.134;2022-08-14T15:52:36;23.30;66.20
38684;DHT22;24910;53.248;-6.134;2022-08-14T15:55:08;23.30;66.20
38684;DHT22;24910;53.248;-6.134;2022-08-14T15:57:41;23.30;66.10
38684;DHT22;24910;53.248;-6.134;2022-08-14T16:00:32;23.20;66.00
38684;DHT22;24910;53.248;-6.134;2022-08-14T16:03:21;23.20;66.00
38684;DHT22;24910;53.248;-6.134;2022-08-14T16:06:03;23.20;66.00
38684;DHT22;24910;53.248;-6.134;2022-08-14T16:08:38;23.10;65.90
38684;DHT22;24910;53.248;-6.134;2022-08-14T16:11:08;23.10;65.80
38684;DHT22;24910;53.248;-6.134;2022-08-14T16:13:39;23.20;65.80
38684;DHT22;24910;53.248;-6.134;2022-08-14T16:16:13;23.30;65.90